sensor_id;sensor_type;location;lat;lon;timestamp;temperature;humidity
75738;DHT22;64356;45.638;13.764;2023-04-25T00:01:17;20.50;57.10
75738;DHT22;64356;45.638;13.764;2023-04-25T00:03:44;20.50;57.10
75738;DHT22;64356;45.638;13.764;2023-04-25T00:06:11;20.40;57.00
75738;DHT22;64356;45.638;13.764;2023-04-25T00:08:37;20.40;57.00
75738;DHT22;64356;45.638;13.764;2023-04-25T00:11:03;20.50;57.00
75738;DHT22;64356;45.638;13.764;2023-04-25T00:13:29;20.40;56.90
75738;DHT22;64356;45.638;13.764;2023-04-25T00:15:55;20.40;56.90
75738;DHT22;64356;45.638;13.764;2023-04-25T00:18:21;20.40;56.80
75738;DHT22;64356;45.638;13.764;2023-04-25T00:20:47;20.40;56.80
75738;DHT22;64356;45.638;13.764;2023-04-25T00:23:14;20.40;56.80
75738;DHT22;64356;45.638;13.764;2023-04-25T00:25:50;20.40;56.70
75738;DHT22;64356;45.638;13.764;2023-04-25T00:28:16;20.40;56.80
75738;DHT22;64356;45.638;13.764;2023-04-25T00:30:43;20.40;56.70
75738;DHT22;64356;45.638;13.764;2023-04-25T00:33:09;20.40;56.80
75738;DHT22;64356;45.638;13.764;2023-04-25T00:35:35;20.40;57.30
75738;DHT22;64356;45.638;13.764;2023-04-25T00:38:01;20.40;56.70
75738;DHT22;64356;45.638;13.764;2023-04-25T00:40:27;20.40;56.80
75738;DHT22;64356;45.638;13.764;2023-04-25T00:42:53;20.40;56.80
75738;DHT22;64356;45.638;13.764;2023-04-25T00:45:19;20.40;56.80
75738;DHT22;64356;45.638;13.764;2023-04-25T00:47:45;20.40;56.70
75738;DHT22;64356;45.638;13.764;2023-04-25T00:50:12;20.40;56.70
75738;DHT22;64356;45.638;13.764;2023-04-25T00:52:43;20.40;56.70
75738;DHT22;64356;45.638;13.764;2023-04-25T00:55:10;20.40;56.60
75738;DHT22;64356;45.638;13.764;2023-04-25T00:57:36;20.40;56.60
75738;DHT22;64356;45.638;13.764;2023-04-25T01:00:06;20.40;56.60
75738;DHT22;64356;45.638;13.764;2023-04-25T01:02:32;20.40;56.70
75738;DHT22;64356;45.638;13.764;2023-04-25T01:04:58;20.40;56.60
75738;DHT22;64356;45.638;13.764;2023-04-25T01:07:25;20.40;56.60
75738;DHT22;64356;45.638;13.764;2023-04-25T01:09:54;20.40;56.50
75738;DHT22;64356;45.638;13.764;2023-04-25T01:12:19;20.40;56.60
75738;DHT22;64356;45.638;13.764;2023-04-25T01:14:46;20.40;56.50
75738;DHT22;64356;45.638;13.764;2023-04-25T01:17:12;20.40;56.50
75738;DHT22;64356;45.638;13.764;2023-04-25T01:19:38;20.40;56.50
75738;DHT22;64356;45.638;13.764;2023-04-25T01:22:04;20.40;56.60
75738;DHT22;64356;45.638;13.764;2023-04-25T01:24:32;20.40;56.50
75738;DHT22;64356;45.638;13.764;2023-04-25T01:26:59;20.40;56.50
75738;DHT22;64356;45.638;13.764;2023-04-25T01:29:27;20.40;56.50
75738;DHT22;64356;45.638;13.764;2023-04-25T01:31:53;20.40;56.50
75738;DHT22;64356;45.638;13.764;2023-04-25T01:34:19;20.40;56.60
75738;DHT22;64356;45.638;13.764;2023-04-25T01:36:47;20.40;56.60
75738;DHT22;64356;45.638;13.764;2023-04-25T01:39:14;20.40;56.50
75738;DHT22;64356;45.638;13.764;2023-04-25T01:41:40;20.40;56.50
75738;DHT22;64356;45.638;13.764;2023-04-25T01:44:06;20.40;56.40
75738;DHT22;64356;45.638;13.764;2023-04-25T01:46:33;20.40;56.40
75738;DHT22;64356;45.638;13.764;2023-04-25T01:48:59;20.40;56.40
75738;DHT22;64356;45.638;13.764;2023-04-25T01:51:25;20.40;56.40
75738;DHT22;64356;45.638;13.764;2023-04-25T01:53:51;20.40;56.50
75738;DHT22;64356;45.638;13.764;2023-04-25T01:56:18;20.40;56.30
75738;DHT22;64356;45.638;13.764;2023-04-25T01:58:45;20.30;56.30
75738;DHT22;64356;45.638;13.764;2023-04-25T02:01:11;20.40;56.40
75738;DHT22;64356;45.638;13.764;2023-04-25T02:03:36;20.30;56.30
75738;DHT22;64356;45.638;13.764;2023-04-25T02:06:02;20.30;56.20
75738;DHT22;64356;45.638;13.764;2023-04-25T02:08:28;20.30;56.20
75738;DHT22;64356;45.638;13.764;2023-04-25T02:10:54;20.30;56.20
75738;DHT22;64356;45.638;13.764;2023-04-25T02:13:19;20.30;56.30
75738;DHT22;64356;45.638;13.764;2023-04-25T02:15:45;20.30;56.30
75738;DHT22;64356;45.638;13.764;2023-04-25T02:18:11;20.30;56.20
75738;DHT22;64356;45.638;13.764;2023-04-25T02:20:36;20.30;56.20
75738;DHT22;64356;45.638;13.764;2023-04-25T02:23:03;20.30;56.30
75738;DHT22;64356;45.638;13.764;2023-04-25T02:25:29;20.30;56.20
75738;DHT22;64356;45.638;13.764;2023-04-25T02:27:55;20.30;56.20
75738;DHT22;64356;45.638;13.764;2023-04-25T02:30:20;20.30;56.30
75738;DHT22;64356;45.638;13.764;2023-04-25T02:32:46;20.30;56.30
75738;DHT22;64356;45.638;13.764;2023-04-25T02:35:12;20.30;56.30
75738;DHT22;64356;45.638;13.764;2023-04-25T02:37:39;20.30;56.20
75738;DHT22;64356;45.638;13.764;2023-04-25T02:40:05;20.30;56.20
75738;DHT22;64356;45.638;13.764;2023-04-25T02:42:31;20.30;56.20
75738;DHT22;64356;45.638;13.764;2023-04-25T02:44:57;20.30;56.20
75738;DHT22;64356;45.638;13.764;2023-04-25T02:47:23;20.30;56.10
75738;DHT22;64356;45.638;13.764;2023-04-25T02:49:49;20.30;56.10
75738;DHT22;64356;45.638;13.764;2023-04-25T02:52:14;20.30;56.10
75738;DHT22;64356;45.638;13.764;2023-04-25T02:54:40;20.30;56.10
75738;DHT22;64356;45.638;13.764;2023-04-25T02:57:06;20.30;56.10
75738;DHT22;64356;45.638;13.764;2023-04-25T02:59:33;20.30;56.00
75738;DHT22;64356;45.638;13.764;2023-04-25T03:01:59;20.30;56.00
75738;DHT22;64356;45.638;13.764;2023-04-25T03:04:24;20.30;56.00
75738;DHT22;64356;45.638;13.764;2023-04-25T03:06:51;20.30;55.90
75738;DHT22;64356;45.638;13.764;2023-04-25T03:09:17;20.30;55.90
75738;DHT22;64356;45.638;13.764;2023-04-25T03:11:44;20.30;55.90
75738;DHT22;64356;45.638;13.764;2023-04-25T03:14:10;20.30;55.90
75738;DHT22;64356;45.638;13.764;2023-04-25T03:16:35;20.30;55.90
75738;DHT22;64356;45.638;13.764;2023-04-25T03:19:02;20.30;55.90
75738;DHT22;64356;45.638;13.764;2023-04-25T03:21:28;20.30;55.80
75738;DHT22;64356;45.638;13.764;2023-04-25T03:23:54;20.30;55.80
75738;DHT22;64356;45.638;13.764;2023-04-25T03:26:19;20.30;55.80
75738;DHT22;64356;45.638;13.764;2023-04-25T03:28:45;20.30;55.80
75738;DHT22;64356;45.638;13.764;2023-04-25T03:31:11;20.30;55.70
75738;DHT22;64356;45.638;13.764;2023-04-25T03:33:37;20.30;55.70
75738;DHT22;64356;45.638;13.764;2023-04-25T03:36:03;20.30;55.70
75738;DHT22;64356;45.638;13.764;2023-04-25T03:38:28;20.30;55.70
75738;DHT22;64356;45.638;13.764;2023-04-25T03:40:54;20.30;55.70
75738;DHT22;64356;45.638;13.764;2023-04-25T03:43:21;20.30;55.60
75738;DHT22;64356;45.638;13.764;2023-04-25T03:45:47;20.30;55.60
75738;DHT22;64356;45.638;13.764;2023-04-25T03:48:13;20.30;55.50
75738;DHT22;64356;45.638;13.764;2023-04-25T03:50:38;20.30;55.50
75738;DHT22;64356;45.638;13.764;2023-04-25T03:53:04;20.20;55.40
75738;DHT22;64356;45.638;13.764;2023-04-25T03:55:30;20.30;55.40
75738;DHT22;64356;45.638;13.764;2023-04-25T03:57:57;20.30;55.40
75738;DHT22;64356;45.638;13.764;2023-04-25T04:00:24;20.20;55.20
75738;DHT22;64356;45.638;13.764;2023-04-25T04:02:49;20.30;55.20
75738;DHT22;64356;45.638;13.764;2023-04-25T04:05:15;20.30;55.10
75738;DHT22;64356;45.638;13.764;2023-04-25T04:07:41;20.30;55.10
75738;DHT22;64356;45.638;13.764;2023-04-25T04:10:09;20.30;55.10
75738;DHT22;64356;45.638;13.764;2023-04-25T04:12:34;20.30;55.00
75738;DHT22;64356;45.638;13.764;2023-04-25T04:15:02;20.20;54.90
75738;DHT22;64356;45.638;13.764;2023-04-25T04:17:29;20.20;55.00
75738;DHT22;64356;45.638;13.764;2023-04-25T04:19:55;20.20;55.00
75738;DHT22;64356;45.638;13.764;2023-04-25T04:22:20;20.20;55.00
75738;DHT22;64356;45.638;13.764;2023-04-25T04:24:46;20.30;55.00
75738;DHT22;64356;45.638;13.764;2023-04-25T04:27:12;20.20;54.90
75738;DHT22;64356;45.638;13.764;2023-04-25T04:29:38;20.20;54.80
75738;DHT22;64356;45.638;13.764;2023-04-25T04:32:04;20.30;54.80
75738;DHT22;64356;45.638;13.764;2023-04-25T04:34:30;20.20;54.70
75738;DHT22;64356;45.638;13.764;2023-04-25T04:36:56;20.20;54.60
75738;DHT22;64356;45.638;13.764;2023-04-25T04:39:22;20.20;54.60
75738;DHT22;64356;45.638;13.764;2023-04-25T04:41:48;20.20;54.60
75738;DHT22;64356;45.638;13.764;2023-04-25T04:44:14;20.20;54.50
75738;DHT22;64356;45.638;13.764;2023-04-25T04:46:40;20.30;54.60
75738;DHT22;64356;45.638;13.764;2023-04-25T04:49:09;20.20;54.50
75738;DHT22;64356;45.638;13.764;2023-04-25T04:51:34;20.20;54.50
75738;DHT22;64356;45.638;13.764;2023-04-25T04:54:00;20.20;54.50
75738;DHT22;64356;45.638;13.764;2023-04-25T04:56:28;20.20;54.40
75738;DHT22;64356;45.638;13.764;2023-04-25T04:58:56;20.20;54.40
75738;DHT22;64356;45.638;13.764;2023-04-25T05:01:22;20.30;54.40
75738;DHT22;64356;45.638;13.764;2023-04-25T05:03:48;20.20;54.50
75738;DHT22;64356;45.638;13.764;2023-04-25T05:06:14;20.20;54.40
75738;DHT22;64356;45.638;13.764;2023-04-25T05:08:40;20.20;54.40
75738;DHT22;64356;45.638;13.764;2023-04-25T05:11:06;20.20;54.40
75738;DHT22;64356;45.638;13.764;2023-04-25T05:13:31;20.20;54.40
75738;DHT22;64356;45.638;13.764;2023-04-25T05:15:57;20.20;54.40
75738;DHT22;64356;45.638;13.764;2023-04-25T05:18:22;20.20;54.40
75738;DHT22;64356;45.638;13.764;2023-04-25T05:20:48;20.30;54.50
75738;DHT22;64356;45.638;13.764;2023-04-25T05:23:14;20.20;54.50
75738;DHT22;64356;45.638;13.764;2023-04-25T05:25:39;20.30;54.40
75738;DHT22;64356;45.638;13.764;2023-04-25T05:28:05;20.20;54.40
75738;DHT22;64356;45.638;13.764;2023-04-25T05:30:31;20.20;54.40
75738;DHT22;64356;45.638;13.764;2023-04-25T05:32:57;20.30;54.40
75738;DHT22;64356;45.638;13.764;2023-04-25T05:35:22;20.30;54.40
75738;DHT22;64356;45.638;13.764;2023-04-25T05:37:48;20.30;54.40
75738;DHT22;64356;45.638;13.764;2023-04-25T05:40:14;20.30;54.40
75738;DHT22;64356;45.638;13.764;2023-04-25T05:42:39;20.20;54.30
75738;DHT22;64356;45.638;13.764;2023-04-25T05:45:05;20.20;54.30
75738;DHT22;64356;45.638;13.764;2023-04-25T05:47:31;20.20;54.30
75738;DHT22;64356;45.638;13.764;2023-04-25T05:49:57;20.20;54.30
75738;DHT22;64356;45.638;13.764;2023-04-25T05:52:23;20.30;54.30
75738;DHT22;64356;45.638;13.764;2023-04-25T05:54:48;20.20;54.20
75738;DHT22;64356;45.638;13.764;2023-04-25T05:57:24;20.20;54.30
75738;DHT22;64356;45.638;13.764;2023-04-25T05:59:51;20.20;54.20
75738;DHT22;64356;45.638;13.764;2023-04-25T06:02:18;20.30;54.30
75738;DHT22;64356;45.638;13.764;2023-04-25T06:04:43;20.30;54.80
75738;DHT22;64356;45.638;13.764;2023-04-25T06:07:09;20.30;54.20
75738;DHT22;64356;45.638;13.764;2023-04-25T06:09:35;20.30;54.20
75738;DHT22;64356;45.638;13.764;2023-04-25T06:12:01;20.30;54.10
75738;DHT22;64356;45.638;13.764;2023-04-25T06:14:27;20.30;54.10
75738;DHT22;64356;45.638;13.764;2023-04-25T06:16:52;20.30;54.20
75738;DHT22;64356;45.638;13.764;2023-04-25T06:19:18;20.30;54.10
75738;DHT22;64356;45.638;13.764;2023-04-25T06:21:44;20.30;54.00
75738;DHT22;64356;45.638;13.764;2023-04-25T06:24:10;20.30;54.00
75738;DHT22;64356;45.638;13.764;2023-04-25T06:26:35;20.30;54.00
75738;DHT22;64356;45.638;13.764;2023-04-25T06:29:01;20.30;54.00
75738;DHT22;64356;45.638;13.764;2023-04-25T06:31:27;20.30;54.00
75738;DHT22;64356;45.638;13.764;2023-04-25T06:33:54;20.30;54.00
75738;DHT22;64356;45.638;13.764;2023-04-25T06:36:22;20.30;54.00
75738;DHT22;64356;45.638;13.764;2023-04-25T06:38:51;20.30;53.90
75738;DHT22;64356;45.638;13.764;2023-04-25T06:41:17;20.30;53.90
75738;DHT22;64356;45.638;13.764;2023-04-25T06:43:44;20.30;53.80
75738;DHT22;64356;45.638;13.764;2023-04-25T06:46:10;20.30;53.80
75738;DHT22;64356;45.638;13.764;2023-04-25T06:48:36;20.30;53.80
75738;DHT22;64356;45.638;13.764;2023-04-25T06:51:02;20.30;53.90
75738;DHT22;64356;45.638;13.764;2023-04-25T06:53:28;20.30;53.90
75738;DHT22;64356;45.638;13.764;2023-04-25T06:55:54;20.30;53.90
75738;DHT22;64356;45.638;13.764;2023-04-25T06:58:20;20.30;53.90
75738;DHT22;64356;45.638;13.764;2023-04-25T07:00:45;20.30;53.90
75738;DHT22;64356;45.638;13.764;2023-04-25T07:03:11;20.30;53.80
75738;DHT22;64356;45.638;13.764;2023-04-25T07:05:37;20.20;53.80
75738;DHT22;64356;45.638;13.764;2023-04-25T07:08:03;20.20;53.80
75738;DHT22;64356;45.638;13.764;2023-04-25T07:10:29;20.30;53.70
75738;DHT22;64356;45.638;13.764;2023-04-25T07:12:55;20.20;53.60
75738;DHT22;64356;45.638;13.764;2023-04-25T07:15:20;20.20;53.60
75738;DHT22;64356;45.638;13.764;2023-04-25T07:17:46;20.30;53.70
75738;DHT22;64356;45.638;13.764;2023-04-25T07:20:12;20.30;53.60
75738;DHT22;64356;45.638;13.764;2023-04-25T07:22:38;20.30;53.50
75738;DHT22;64356;45.638;13.764;2023-04-25T07:25:04;20.30;53.50
75738;DHT22;64356;45.638;13.764;2023-04-25T07:27:30;20.30;53.50
75738;DHT22;64356;45.638;13.764;2023-04-25T07:29:57;20.30;53.50
75738;DHT22;64356;45.638;13.764;2023-04-25T07:32:23;20.20;53.50
75738;DHT22;64356;45.638;13.764;2023-04-25T07:34:49;20.20;53.60
75738;DHT22;64356;45.638;13.764;2023-04-25T07:37:14;20.30;53.70
75738;DHT22;64356;45.638;13.764;2023-04-25T07:39:40;20.30;53.70
75738;DHT22;64356;45.638;13.764;2023-04-25T07:42:06;20.20;53.70
75738;DHT22;64356;45.638;13.764;2023-04-25T07:44:34;20.20;53.70
75738;DHT22;64356;45.638;13.764;2023-04-25T07:47:07;20.20;53.70
75738;DHT22;64356;45.638;13.764;2023-04-25T07:49:36;20.20;53.80
75738;DHT22;64356;45.638;13.764;2023-04-25T07:52:06;20.20;53.80
75738;DHT22;64356;45.638;13.764;2023-04-25T07:54:31;20.20;53.90
75738;DHT22;64356;45.638;13.764;2023-04-25T07:56:58;20.20;53.80
75738;DHT22;64356;45.638;13.764;2023-04-25T07:59:23;20.20;53.90
75738;DHT22;64356;45.638;13.764;2023-04-25T08:01:49;20.20;54.40
75738;DHT22;64356;45.638;13.764;2023-04-25T08:04:16;20.20;54.00
75738;DHT22;64356;45.638;13.764;2023-04-25T08:06:42;20.20;54.10
75738;DHT22;64356;45.638;13.764;2023-04-25T08:09:08;20.20;54.10
75738;DHT22;64356;45.638;13.764;2023-04-25T08:11:37;20.20;54.10
75738;DHT22;64356;45.638;13.764;2023-04-25T08:14:02;20.20;54.00
75738;DHT22;64356;45.638;13.764;2023-04-25T08:16:28;20.20;54.00
75738;DHT22;64356;45.638;13.764;2023-04-25T08:18:54;20.20;54.00
75738;DHT22;64356;45.638;13.764;2023-04-25T08:21:20;20.20;54.00
75738;DHT22;64356;45.638;13.764;2023-04-25T08:23:46;20.20;54.10
75738;DHT22;64356;45.638;13.764;2023-04-25T08:26:11;20.20;54.10
75738;DHT22;64356;45.638;13.764;2023-04-25T08:28:37;20.20;54.10
75738;DHT22;64356;45.638;13.764;2023-04-25T08:31:03;20.20;54.00
75738;DHT22;64356;45.638;13.764;2023-04-25T08:33:29;20.20;54.10
75738;DHT22;64356;45.638;13.764;2023-04-25T08:35:55;20.20;54.10
75738;DHT22;64356;45.638;13.764;2023-04-25T08:38:21;20.20;54.10
75738;DHT22;64356;45.638;13.764;2023-04-25T08:40:49;20.20;54.10
75738;DHT22;64356;45.638;13.764;2023-04-25T08:43:19;20.20;54.10
75738;DHT22;64356;45.638;13.764;2023-04-25T08:45:45;20.20;54.70
75738;DHT22;64356;45.638;13.764;2023-04-25T08:48:12;20.20;54.10
75738;DHT22;64356;45.638;13.764;2023-04-25T08:50:52;20.20;54.10
75738;DHT22;64356;45.638;13.764;2023-04-25T08:53:29;20.20;54.20
75738;DHT22;64356;45.638;13.764;2023-04-25T08:55:56;20.20;54.20
75738;DHT22;64356;45.638;13.764;2023-04-25T08:58:23;20.20;54.20
75738;DHT22;64356;45.638;13.764;2023-04-25T09:00:49;20.20;54.20
75738;DHT22;64356;45.638;13.764;2023-04-25T09:03:16;20.20;54.20
75738;DHT22;64356;45.638;13.764;2023-04-25T09:05:42;20.20;54.30
75738;DHT22;64356;45.638;13.764;2023-04-25T09:08:08;20.20;54.30
75738;DHT22;64356;45.638;13.764;2023-04-25T09:10:34;20.20;54.30
75738;DHT22;64356;45.638;13.764;2023-04-25T09:13:04;20.20;54.40
75738;DHT22;64356;45.638;13.764;2023-04-25T09:15:31;20.20;54.30
75738;DHT22;64356;45.638;13.764;2023-04-25T09:17:57;20.20;54.30
75738;DHT22;64356;45.638;13.764;2023-04-25T09:20:23;20.20;54.30
75738;DHT22;64356;45.638;13.764;2023-04-25T09:23:04;20.20;54.40
75738;DHT22;64356;45.638;13.764;2023-04-25T09:25:34;20.20;54.40
75738;DHT22;64356;45.638;13.764;2023-04-25T09:28:04;20.20;54.40
75738;DHT22;64356;45.638;13.764;2023-04-25T09:30:32;20.20;54.50
75738;DHT22;64356;45.638;13.764;2023-04-25T09:33:09;20.20;54.40
75738;DHT22;64356;45.638;13.764;2023-04-25T09:35:40;20.10;54.40
75738;DHT22;64356;45.638;13.764;2023-04-25T09:38:12;20.20;54.50
75738;DHT22;64356;45.638;13.764;2023-04-25T09:40:42;20.10;54.50
75738;DHT22;64356;45.638;13.764;2023-04-25T09:43:30;20.20;54.50
75738;DHT22;64356;45.638;13.764;2023-04-25T09:45:55;20.10;54.40
75738;DHT22;64356;45.638;13.764;2023-04-25T09:48:25;20.10;54.40
75738;DHT22;64356;45.638;13.764;2023-04-25T09:51:07;20.10;54.40
75738;DHT22;64356;45.638;13.764;2023-04-25T09:53:37;20.20;54.50
75738;DHT22;64356;45.638;13.764;2023-04-25T09:56:08;20.10;54.50
75738;DHT22;64356;45.638;13.764;2023-04-25T09:58:35;20.10;54.50
75738;DHT22;64356;45.638;13.764;2023-04-25T10:01:08;20.10;54.60
75738;DHT22;64356;45.638;13.764;2023-04-25T10:03:36;20.20;54.60
75738;DHT22;64356;45.638;13.764;2023-04-25T10:06:03;20.10;55.10
75738;DHT22;64356;45.638;13.764;2023-04-25T10:08:36;20.10;54.50
75738;DHT22;64356;45.638;13.764;2023-04-25T10:11:07;20.10;54.60
75738;DHT22;64356;45.638;13.764;2023-04-25T10:13:34;20.10;54.60
75738;DHT22;64356;45.638;13.764;2023-04-25T10:16:03;20.20;54.60
75738;DHT22;64356;45.638;13.764;2023-04-25T10:18:30;20.10;54.60
75738;DHT22;64356;45.638;13.764;2023-04-25T10:21:00;20.10;54.60
75738;DHT22;64356;45.638;13.764;2023-04-25T10:23:26;20.10;54.60
75738;DHT22;64356;45.638;13.764;2023-04-25T10:25:53;20.10;54.60
75738;DHT22;64356;45.638;13.764;2023-04-25T10:28:20;20.10;54.60
75738;DHT22;64356;45.638;13.764;2023-04-25T10:31:03;20.20;54.60
75738;DHT22;64356;45.638;13.764;2023-04-25T10:33:39;20.20;54.60
75738;DHT22;64356;45.638;13.764;2023-04-25T10:38:37;20.10;54.60
75738;DHT22;64356;45.638;13.764;2023-04-25T10:41:08;20.10;54.60
75738;DHT22;64356;45.638;13.764;2023-04-25T10:43:35;20.10;54.60
75738;DHT22;64356;45.638;13.764;2023-04-25T10:46:32;20.10;54.70
75738;DHT22;64356;45.638;13.764;2023-04-25T10:49:01;20.10;54.60
75738;DHT22;64356;45.638;13.764;2023-04-25T10:51:34;20.10;54.60
75738;DHT22;64356;45.638;13.764;2023-04-25T10:54:05;20.10;54.60
75738;DHT22;64356;45.638;13.764;2023-04-25T10:56:39;20.20;54.70
75738;DHT22;64356;45.638;13.764;2023-04-25T10:59:16;20.10;54.70
75738;DHT22;64356;45.638;13.764;2023-04-25T11:01:43;20.10;54.70
75738;DHT22;64356;45.638;13.764;2023-04-25T11:04:33;20.10;54.70
75738;DHT22;64356;45.638;13.764;2023-04-25T11:07:10;20.10;54.60
75738;DHT22;64356;45.638;13.764;2023-04-25T11:09:40;20.10;54.70
75738;DHT22;64356;45.638;13.764;2023-04-25T11:12:08;20.10;54.70
75738;DHT22;64356;45.638;13.764;2023-04-25T11:14:34;20.10;54.60
75738;DHT22;64356;45.638;13.764;2023-04-25T11:17:00;20.10;54.70
75738;DHT22;64356;45.638;13.764;2023-04-25T11:19:29;20.10;54.60
75738;DHT22;64356;45.638;13.764;2023-04-25T11:21:59;20.10;54.70
75738;DHT22;64356;45.638;13.764;2023-04-25T11:24:27;20.10;54.70
75738;DHT22;64356;45.638;13.764;2023-04-25T11:26:53;20.10;54.70
75738;DHT22;64356;45.638;13.764;2023-04-25T11:29:22;20.10;54.70
75738;DHT22;64356;45.638;13.764;2023-04-25T11:31:48;20.10;54.70
75738;DHT22;64356;45.638;13.764;2023-04-25T11:34:20;20.10;54.70
75738;DHT22;64356;45.638;13.764;2023-04-25T11:36:46;20.10;54.70
75738;DHT22;64356;45.638;13.764;2023-04-25T11:39:12;20.10;54.60
75738;DHT22;64356;45.638;13.764;2023-04-25T11:41:38;20.10;54.60
75738;DHT22;64356;45.638;13.764;2023-04-25T11:44:05;20.10;54.70
75738;DHT22;64356;45.638;13.764;2023-04-25T11:46:33;20.10;54.60
75738;DHT22;64356;45.638;13.764;2023-04-25T11:48:59;20.10;54.70
75738;DHT22;64356;45.638;13.764;2023-04-25T11:51:25;20.10;54.60
75738;DHT22;64356;45.638;13.764;2023-04-25T11:53:51;20.10;54.60
75738;DHT22;64356;45.638;13.764;2023-04-25T11:56:17;20.10;54.60
75738;DHT22;64356;45.638;13.764;2023-04-25T11:59:00;20.10;54.50
75738;DHT22;64356;45.638;13.764;2023-04-25T12:01:30;20.10;54.50
75738;DHT22;64356;45.638;13.764;2023-04-25T12:03:56;20.10;54.40
75738;DHT22;64356;45.638;13.764;2023-04-25T12:06:26;20.10;54.40
75738;DHT22;64356;45.638;13.764;2023-04-25T12:09:03;20.10;54.40
75738;DHT22;64356;45.638;13.764;2023-04-25T12:11:32;20.10;54.40
75738;DHT22;64356;45.638;13.764;2023-04-25T12:14:03;20.10;54.50
75738;DHT22;64356;45.638;13.764;2023-04-25T12:16:43;20.10;54.50
75738;DHT22;64356;45.638;13.764;2023-04-25T12:19:09;20.10;54.60
75738;DHT22;64356;45.638;13.764;2023-04-25T12:21:35;20.10;54.60
75738;DHT22;64356;45.638;13.764;2023-04-25T12:24:15;20.10;54.60
75738;DHT22;64356;45.638;13.764;2023-04-25T12:29:17;20.10;54.60
75738;DHT22;64356;45.638;13.764;2023-04-25T12:31:43;20.10;54.60
75738;DHT22;64356;45.638;13.764;2023-04-25T12:34:08;20.10;54.60
75738;DHT22;64356;45.638;13.764;2023-04-25T12:36:34;20.10;54.60
75738;DHT22;64356;45.638;13.764;2023-04-25T12:39:00;20.10;54.60
75738;DHT22;64356;45.638;13.764;2023-04-25T12:41:29;20.10;54.60
75738;DHT22;64356;45.638;13.764;2023-04-25T12:43:55;20.10;54.60
75738;DHT22;64356;45.638;13.764;2023-04-25T12:46:21;20.10;54.60
75738;DHT22;64356;45.638;13.764;2023-04-25T12:48:48;20.10;54.60
75738;DHT22;64356;45.638;13.764;2023-04-25T12:51:14;20.10;54.60
75738;DHT22;64356;45.638;13.764;2023-04-25T12:53:40;20.10;54.60
75738;DHT22;64356;45.638;13.764;2023-04-25T12:56:07;20.10;54.60
75738;DHT22;64356;45.638;13.764;2023-04-25T12:58:33;20.10;54.60
75738;DHT22;64356;45.638;13.764;2023-04-25T13:01:00;20.10;54.60
75738;DHT22;64356;45.638;13.764;2023-04-25T13:03:26;20.10;54.60
75738;DHT22;64356;45.638;13.764;2023-04-25T13:05:52;20.10;54.50
75738;DHT22;64356;45.638;13.764;2023-04-25T13:08:21;20.10;54.50
75738;DHT22;64356;45.638;13.764;2023-04-25T13:10:47;20.10;54.50
75738;DHT22;64356;45.638;13.764;2023-04-25T13:13:13;20.10;54.60
75738;DHT22;64356;45.638;13.764;2023-04-25T13:15:39;20.10;54.60
75738;DHT22;64356;45.638;13.764;2023-04-25T13:18:05;20.10;54.50
75738;DHT22;64356;45.638;13.764;2023-04-25T13:20:31;20.10;54.50
75738;DHT22;64356;45.638;13.764;2023-04-25T13:22:57;20.10;54.60
75738;DHT22;64356;45.638;13.764;2023-04-25T13:25:22;20.10;54.60
75738;DHT22;64356;45.638;13.764;2023-04-25T13:27:48;20.10;55.10
75738;DHT22;64356;45.638;13.764;2023-04-25T13:30:14;20.10;54.50
75738;DHT22;64356;45.638;13.764;2023-04-25T13:32:40;20.10;54.60
75738;DHT22;64356;45.638;13.764;2023-04-25T13:35:10;20.10;54.50
75738;DHT22;64356;45.638;13.764;2023-04-25T13:37:36;20.10;54.50
75738;DHT22;64356;45.638;13.764;2023-04-25T13:40:04;20.10;54.40
75738;DHT22;64356;45.638;13.764;2023-04-25T13:42:31;20.10;54.50
75738;DHT22;64356;45.638;13.764;2023-04-25T13:44:56;20.10;54.50
75738;DHT22;64356;45.638;13.764;2023-04-25T13:47:23;20.10;54.40
75738;DHT22;64356;45.638;13.764;2023-04-25T13:49:49;20.10;54.40
75738;DHT22;64356;45.638;13.764;2023-04-25T13:52:15;20.10;54.40
75738;DHT22;64356;45.638;13.764;2023-04-25T13:54:41;20.20;54.50
75738;DHT22;64356;45.638;13.764;2023-04-25T13:57:07;20.10;54.40
75738;DHT22;64356;45.638;13.764;2023-04-25T13:59:32;20.20;54.40
75738;DHT22;64356;45.638;13.764;2023-04-25T14:01:58;20.10;54.40
75738;DHT22;64356;45.638;13.764;2023-04-25T14:04:24;20.10;54.30
75738;DHT22;64356;45.638;13.764;2023-04-25T14:06:50;20.10;54.30
75738;DHT22;64356;45.638;13.764;2023-04-25T14:09:18;20.20;54.40
75738;DHT22;64356;45.638;13.764;2023-04-25T14:11:44;20.20;54.30
75738;DHT22;64356;45.638;13.764;2023-04-25T14:14:10;20.20;54.30
75738;DHT22;64356;45.638;13.764;2023-04-25T14:16:35;20.20;54.40
75738;DHT22;64356;45.638;13.764;2023-04-25T14:19:01;20.20;54.40
75738;DHT22;64356;45.638;13.764;2023-04-25T14:21:27;20.20;54.40
75738;DHT22;64356;45.638;13.764;2023-04-25T14:23:54;20.20;54.40
75738;DHT22;64356;45.638;13.764;2023-04-25T14:26:19;20.20;54.30
75738;DHT22;64356;45.638;13.764;2023-04-25T14:28:45;20.20;54.20
75738;DHT22;64356;45.638;13.764;2023-04-25T14:31:11;20.20;54.30
75738;DHT22;64356;45.638;13.764;2023-04-25T14:33:37;20.20;53.80
75738;DHT22;64356;45.638;13.764;2023-04-25T14:36:05;20.30;53.70
75738;DHT22;64356;45.638;13.764;2023-04-25T14:38:31;20.20;53.50
75738;DHT22;64356;45.638;13.764;2023-04-25T14:40:56;20.30;53.50
75738;DHT22;64356;45.638;13.764;2023-04-25T14:43:22;20.30;53.50
75738;DHT22;64356;45.638;13.764;2023-04-25T14:45:48;20.30;53.50
75738;DHT22;64356;45.638;13.764;2023-04-25T14:48:13;20.40;53.60
75738;DHT22;64356;45.638;13.764;2023-04-25T14:50:40;20.30;53.40
75738;DHT22;64356;45.638;13.764;2023-04-25T14:53:06;20.40;53.50
75738;DHT22;64356;45.638;13.764;2023-04-25T14:55:32;20.40;53.50
75738;DHT22;64356;45.638;13.764;2023-04-25T14:57:57;20.40;53.50
75738;DHT22;64356;45.638;13.764;2023-04-25T15:00:23;20.40;53.50
75738;DHT22;64356;45.638;13.764;2023-04-25T15:02:50;20.30;53.50
75738;DHT22;64356;45.638;13.764;2023-04-25T15:05:16;20.30;53.50
75738;DHT22;64356;45.638;13.764;2023-04-25T15:07:43;20.30;53.50
75738;DHT22;64356;45.638;13.764;2023-04-25T15:10:09;20.30;53.50
75738;DHT22;64356;45.638;13.764;2023-04-25T15:12:45;20.30;53.60
75738;DHT22;64356;45.638;13.764;2023-04-25T15:15:11;20.30;53.70
75738;DHT22;64356;45.638;13.764;2023-04-25T15:17:41;20.30;53.70
75738;DHT22;64356;45.638;13.764;2023-04-25T15:20:09;20.30;53.70